createdAt,value
2019-05-11T00:01:19.336Z,85.40
2019-05-11T00:04:24.571Z,85.40
2019-05-11T00:07:29.903Z,85.40
2019-05-11T00:10:34.979Z,85.50
2019-05-11T00:13:40.020Z,85.40
2019-05-11T00:16:44.898Z,85.20
2019-05-11T00:19:49.852Z,85.60
2019-05-11T00:22:55.001Z,84.90
2019-05-11T00:26:00.240Z,85.10
2019-05-11T00:29:05.433Z,85.20
2019-05-11T00:32:10.219Z,85.00
2019-05-11T00:35:15.242Z,84.90
2019-05-11T00:38:20.308Z,85.20
2019-05-11T00:41:25.462Z,85.10
2019-05-11T00:44:30.402Z,85.40
2019-05-11T00:47:35.511Z,85.60
2019-05-11T00:50:40.521Z,85.60
2019-05-11T00:53:45.897Z,85.60
2019-05-11T00:56:50.781Z,85.60
2019-05-11T00:59:55.667Z,85.70
2019-05-11T01:03:00.842Z,85.50
2019-05-11T01:06:05.744Z,85.60
2019-05-11T01:09:10.808Z,85.40
2019-05-11T01:12:15.828Z,85.40
2019-05-11T01:15:20.919Z,85.20
2019-05-11T01:18:26.124Z,85.00
2019-05-11T01:21:31.241Z,84.70
2019-05-11T01:24:36.146Z,85.00
2019-05-11T01:27:41.080Z,84.90
2019-05-11T01:30:46.253Z,85.30
2019-05-11T01:33:51.444Z,85.00
2019-05-11T01:36:56.473Z,84.80
2019-05-11T01:40:01.814Z,84.90
2019-05-11T01:43:07.054Z,85.20
2019-05-11T01:46:12.181Z,85.50
2019-05-11T01:49:17.033Z,85.40
2019-05-11T01:52:22.083Z,85.30
2019-05-11T01:55:27.428Z,85.20
2019-05-11T01:58:32.467Z,85.00
2019-05-11T02:01:37.725Z,85.00
2019-05-11T02:04:42.654Z,84.90
2019-05-11T02:07:47.793Z,84.80
2019-05-11T02:10:52.723Z,84.40
2019-05-11T02:13:57.787Z,84.40
2019-05-11T02:17:02.707Z,84.50
2019-05-11T02:20:07.780Z,84.70
2019-05-11T02:23:12.683Z,84.90
2019-05-11T02:26:17.737Z,85.30
2019-05-11T02:29:22.961Z,85.40
2019-05-11T02:32:28.052Z,85.60
2019-05-11T02:35:32.954Z,85.80
2019-05-11T02:38:37.898Z,85.80
2019-05-11T02:41:43.069Z,86.10
2019-05-11T02:44:48.053Z,86.00
2019-05-11T02:47:52.978Z,86.00
2019-05-11T02:50:58.480Z,85.80
2019-05-11T02:54:04.073Z,85.70
2019-05-11T02:57:09.109Z,86.00
2019-05-11T03:00:14.189Z,86.40
2019-05-11T03:03:19.288Z,86.40
2019-05-11T03:06:24.480Z,86.40
2019-05-11T03:09:29.736Z,86.50
2019-05-11T03:12:34.762Z,86.40
2019-05-11T03:15:39.865Z,86.30
2019-05-11T03:18:44.800Z,86.70
2019-05-11T03:21:49.800Z,86.70
2019-05-11T03:24:54.913Z,87.10
2019-05-11T03:27:59.927Z,87.20
2019-05-11T03:31:04.780Z,87.20
2019-05-11T03:34:09.521Z,87.10
2019-05-11T03:37:14.610Z,87.10
2019-05-11T03:40:19.483Z,87.10
2019-05-11T03:43:24.547Z,87.40
2019-05-11T03:46:29.502Z,87.70
2019-05-11T03:49:34.462Z,87.70
2019-05-11T03:52:39.546Z,87.70
2019-05-11T03:55:44.448Z,87.20
2019-05-11T03:58:49.397Z,87.20
2019-05-11T04:01:54.555Z,87.20
2019-05-11T04:04:59.477Z,87.20
2019-05-11T04:08:04.337Z,87.60
2019-05-11T04:11:09.253Z,87.70
2019-05-11T04:14:14.281Z,87.70
2019-05-11T04:17:22.407Z,87.10
2019-05-11T04:20:27.629Z,87.20
2019-05-11T04:23:32.638Z,87.40
2019-05-11T04:26:37.915Z,87.40
2019-05-11T04:29:43.285Z,86.90
2019-05-11T04:32:48.304Z,86.80
2019-05-11T04:35:53.662Z,86.40
2019-05-11T04:38:58.892Z,85.80
2019-05-11T04:42:03.893Z,85.40
2019-05-11T04:45:09.767Z,85.20
2019-05-11T04:48:14.947Z,84.90
2019-05-11T04:51:19.975Z,84.60
2019-05-11T04:54:24.939Z,83.90
2019-05-11T04:57:29.936Z,83.30
2019-05-11T05:00:35.121Z,82.90
2019-05-11T05:03:41.322Z,82.80
2019-05-11T05:06:59.001Z,82.00
2019-05-11T05:09:53.582Z,81.10
2019-05-11T05:13:10.145Z,81.00
2019-05-11T05:16:05.402Z,80.80
2019-05-11T05:19:10.496Z,80.60
2019-05-11T05:22:15.805Z,80.50
2019-05-11T05:25:20.692Z,80.80
2019-05-11T05:28:25.693Z,80.30
2019-05-11T05:31:30.725Z,79.80
2019-05-11T05:34:35.717Z,80.00
2019-05-11T05:37:40.718Z,79.00
2019-05-11T05:40:45.648Z,77.50
2019-05-11T05:43:50.619Z,77.20
2019-05-11T05:46:56.731Z,76.50
2019-05-11T05:50:01.861Z,74.90
2019-05-11T05:53:06.832Z,74.10
2019-05-11T05:56:21.168Z,73.20
2019-05-11T05:59:26.324Z,71.90
2019-05-11T06:02:31.193Z,72.50
2019-05-11T06:05:36.403Z,72.70
2019-05-11T06:08:43.328Z,72.50
2019-05-11T06:11:48.263Z,72.30
2019-05-11T06:14:53.516Z,71.30
2019-05-11T06:18:00.534Z,70.70
2019-05-11T06:21:06.026Z,70.20
2019-05-11T06:24:11.016Z,69.00
2019-05-11T06:27:16.044Z,67.60
2019-05-11T06:30:21.163Z,65.50
2019-05-11T06:33:26.168Z,63.90
2019-05-11T06:36:31.381Z,60.80
2019-05-11T06:39:36.362Z,58.90
2019-05-11T06:42:41.466Z,56.70
2019-05-11T06:45:46.397Z,54.60
2019-05-11T06:48:51.347Z,52.90
2019-05-11T06:51:56.313Z,50.20
2019-05-11T06:55:01.255Z,48.50
2019-05-11T06:58:06.190Z,46.20
2019-05-11T07:01:11.302Z,44.50
2019-05-11T07:04:16.188Z,43.20
2019-05-11T07:07:21.209Z,41.60
2019-05-11T07:10:26.493Z,41.50
2019-05-11T07:13:31.450Z,40.70
2019-05-11T07:16:36.944Z,38.90
2019-05-11T07:19:42.148Z,37.90
2019-05-11T07:22:47.101Z,37.90
2019-05-11T07:25:52.193Z,36.90
2019-05-11T07:28:57.207Z,36.10
2019-05-11T07:32:10.045Z,34.40
2019-05-11T07:35:09.222Z,31.70
2019-05-11T07:38:14.255Z,30.20
2019-05-11T07:41:19.311Z,30.50
2019-05-11T07:44:37.629Z,30.00
2019-05-11T07:47:31.054Z,29.50
2019-05-11T07:50:35.942Z,29.30
2019-05-11T07:53:40.700Z,28.60
2019-05-11T07:56:47.769Z,28.00
2019-05-11T07:59:52.091Z,26.80
2019-05-11T08:02:58.459Z,25.90
2019-05-11T08:06:03.565Z,24.30
2019-05-11T08:09:08.826Z,23.80
2019-05-11T08:12:14.072Z,24.00
2019-05-11T08:15:19.829Z,24.30
2019-05-11T08:18:25.141Z,24.50
2019-05-11T08:21:30.191Z,25.30
2019-05-11T08:24:37.608Z,26.70
2019-05-11T08:27:42.259Z,27.80
2019-05-11T08:30:48.615Z,28.70
2019-05-11T08:33:53.812Z,29.10
2019-05-11T08:36:58.769Z,29.50
2019-05-11T08:40:04.153Z,30.60
2019-05-11T08:43:09.144Z,31.50
2019-05-11T08:46:14.224Z,32.60
2019-05-11T08:49:19.455Z,34.80
2019-05-11T08:52:24.679Z,34.80
2019-05-11T08:55:29.631Z,36.30
2019-05-11T08:58:34.739Z,39.10
2019-05-11T09:01:39.590Z,38.40
2019-05-11T09:05:03.189Z,39.10
2019-05-11T09:08:08.644Z,39.00
2019-05-11T09:11:13.997Z,39.60
2019-05-11T09:14:19.065Z,41.10
2019-05-11T09:17:24.070Z,42.00
2019-05-11T09:20:29.114Z,42.00
2019-05-11T09:23:37.592Z,42.80
2019-05-11T09:26:40.892Z,41.80
2019-05-11T09:29:47.868Z,43.00
2019-05-11T09:32:52.991Z,43.40
2019-05-11T09:35:58.525Z,44.00
2019-05-11T09:39:03.933Z,44.30
2019-05-11T09:42:09.020Z,43.70
2019-05-11T09:45:14.355Z,43.80
2019-05-11T09:48:19.327Z,42.90
2019-05-11T09:51:24.180Z,44.10
2019-05-11T09:54:29.231Z,43.20
2019-05-11T09:57:34.198Z,42.90
2019-05-11T10:00:39.537Z,43.00
2019-05-11T10:03:44.623Z,42.90
2019-05-11T10:06:49.784Z,42.70
2019-05-11T10:09:54.933Z,43.10
2019-05-11T10:13:00.044Z,44.00
2019-05-11T10:16:08.088Z,45.30
2019-05-11T10:19:11.553Z,45.60
2019-05-11T10:22:18.602Z,45.20
2019-05-11T10:25:23.668Z,44.80
2019-05-11T10:28:28.853Z,45.20
2019-05-11T10:31:34.506Z,44.50
2019-05-11T10:34:39.734Z,44.20
2019-05-11T10:37:44.834Z,44.70
2019-05-11T10:40:49.997Z,44.50
2019-05-11T10:43:55.203Z,44.90
2019-05-11T10:47:00.277Z,44.10
2019-05-11T10:50:05.306Z,42.30
2019-05-11T10:53:10.312Z,42.80
2019-05-11T10:56:17.671Z,43.00
2019-05-11T10:59:22.455Z,43.70
2019-05-11T11:02:28.034Z,43.60
2019-05-11T11:05:33.427Z,42.90
2019-05-11T11:08:38.556Z,43.40
2019-05-11T11:11:43.578Z,44.10
2019-05-11T11:14:48.647Z,43.50
2019-05-11T11:17:53.778Z,41.50
2019-05-11T11:20:58.852Z,41.30
2019-05-11T11:24:04.037Z,41.70
2019-05-11T11:27:10.912Z,41.50
2019-05-11T11:30:18.137Z,41.80
2019-05-11T11:33:23.297Z,41.40
2019-05-11T11:36:28.548Z,41.30
2019-05-11T11:39:33.629Z,40.70
2019-05-11T11:42:38.882Z,41.50
2019-05-11T11:45:44.033Z,41.80
2019-05-11T11:48:49.258Z,42.40
2019-05-11T11:51:54.341Z,42.50
2019-05-11T11:54:59.184Z,41.80
2019-05-11T11:58:04.320Z,40.90
2019-05-11T12:01:09.156Z,40.90
2019-05-11T12:04:14.309Z,40.70
2019-05-11T12:07:19.482Z,40.80
2019-05-11T12:10:26.004Z,40.20
2019-05-11T12:13:31.189Z,40.30
2019-05-11T12:17:06.812Z,40.90
2019-05-11T12:20:01.603Z,42.20
2019-05-11T12:23:09.129Z,41.50
2019-05-11T12:26:14.233Z,41.50
2019-05-11T12:29:19.207Z,41.50
2019-05-11T12:32:48.817Z,41.60
2019-05-11T12:35:53.576Z,41.80
2019-05-11T12:38:58.581Z,41.50
2019-05-11T12:42:03.693Z,41.00
2019-05-11T12:45:09.344Z,41.20
2019-05-11T12:48:14.324Z,41.60
2019-05-11T12:51:19.952Z,42.30
2019-05-11T12:54:24.849Z,42.90
2019-05-11T12:57:29.601Z,44.10
2019-05-11T13:00:34.351Z,44.40
2019-05-11T13:03:39.091Z,44.10
2019-05-11T13:06:43.857Z,42.90
2019-05-11T13:09:48.963Z,42.90
2019-05-11T13:12:53.860Z,42.60
2019-05-11T13:15:58.910Z,42.40
2019-05-11T13:19:03.910Z,43.30
2019-05-11T13:22:11.296Z,42.50
2019-05-11T13:25:17.738Z,42.00
2019-05-11T13:28:22.965Z,42.20
2019-05-11T13:31:28.180Z,42.10
2019-05-11T13:34:33.185Z,42.40
2019-05-11T13:37:38.783Z,43.40
2019-05-11T13:40:43.952Z,43.20
2019-05-11T13:43:49.074Z,43.80
2019-05-11T13:46:54.142Z,44.00
2019-05-11T13:49:59.383Z,45.00
2019-05-11T13:53:04.523Z,45.60
2019-05-11T13:56:09.489Z,45.90
2019-05-11T13:59:14.821Z,46.10
2019-05-11T14:02:20.021Z,45.80
2019-05-11T14:05:25.149Z,44.90
2019-05-11T14:08:30.205Z,44.60
2019-05-11T14:11:35.343Z,45.00
2019-05-11T14:14:40.493Z,44.90
2019-05-11T14:17:45.542Z,44.40
2019-05-11T14:20:50.605Z,43.90
2019-05-11T14:23:55.622Z,43.30
2019-05-11T14:27:00.631Z,43.50
2019-05-11T14:30:08.096Z,44.60
2019-05-11T14:33:12.771Z,45.30
2019-05-11T14:36:18.546Z,45.80
2019-05-11T14:39:23.606Z,46.10
2019-05-11T14:42:28.790Z,45.30
2019-05-11T14:45:33.863Z,45.10
2019-05-11T14:48:39.298Z,45.30
2019-05-11T14:51:44.373Z,45.70
2019-05-11T14:54:49.346Z,46.80
2019-05-11T14:57:54.246Z,47.10
2019-05-11T15:00:59.822Z,42.60
2019-05-11T15:04:04.718Z,41.50
2019-05-11T15:07:10.686Z,41.40
2019-05-11T15:10:18.820Z,42.30
2019-05-11T15:13:24.155Z,41.90
2019-05-11T15:16:29.025Z,40.90
2019-05-11T15:19:33.999Z,41.60
2019-05-11T15:22:39.126Z,40.90
2019-05-11T15:25:44.345Z,41.10
2019-05-11T15:28:49.422Z,40.80
2019-05-11T15:31:54.392Z,41.40
2019-05-11T15:34:59.550Z,41.40
2019-05-11T15:38:08.738Z,41.30
2019-05-11T15:41:13.787Z,40.20
2019-05-11T15:44:19.052Z,41.40
2019-05-11T15:47:24.063Z,41.70
2019-05-11T15:50:29.328Z,41.70
2019-05-11T15:53:34.426Z,41.90
2019-05-11T15:56:39.379Z,42.80
2019-05-11T15:59:44.540Z,42.70
2019-05-11T16:02:49.614Z,42.60
2019-05-11T16:05:54.893Z,42.80
2019-05-11T16:08:59.942Z,43.20
2019-05-11T16:12:04.937Z,43.00
2019-05-11T16:15:11.239Z,43.70
2019-05-11T16:18:18.680Z,44.30
2019-05-11T16:21:23.215Z,44.50
2019-05-11T16:24:28.118Z,44.40
2019-05-11T16:27:33.136Z,44.80
2019-05-11T16:30:38.311Z,45.00
2019-05-11T16:33:43.409Z,45.40
2019-05-11T16:36:49.755Z,46.40
2019-05-11T16:39:54.586Z,46.40
2019-05-11T16:42:59.588Z,46.90
2019-05-11T16:46:04.729Z,46.40
2019-05-11T16:49:24.978Z,46.70
2019-05-11T16:52:18.359Z,47.10
2019-05-11T16:55:23.221Z,47.30
2019-05-11T16:58:28.486Z,46.90
2019-05-11T17:01:33.849Z,46.80
2019-05-11T17:04:39.801Z,46.70
2019-05-11T17:07:44.776Z,46.60
2019-05-11T17:10:59.589Z,46.40
2019-05-11T17:14:05.053Z,46.50
2019-05-11T17:17:09.911Z,46.50
2019-05-11T17:20:15.153Z,46.60
2019-05-11T17:23:20.178Z,46.80
2019-05-11T17:26:25.078Z,46.30
2019-05-11T17:29:30.445Z,46.20
2019-05-11T17:32:35.417Z,46.50
2019-05-11T17:35:41.605Z,46.60
2019-05-11T17:38:47.947Z,46.80
2019-05-11T17:41:53.117Z,47.00
2019-05-11T17:44:58.895Z,46.90
2019-05-11T17:48:03.944Z,47.00
2019-05-11T17:51:20.463Z,47.50
2019-05-11T17:54:17.804Z,47.70
2019-05-11T17:57:22.337Z,47.80
2019-05-11T18:00:28.336Z,48.10
2019-05-11T18:03:33.870Z,48.40
2019-05-11T18:06:38.890Z,48.70
2019-05-11T18:09:44.051Z,48.80
2019-05-11T18:12:49.064Z,48.90
2019-05-11T18:15:54.366Z,49.00
2019-05-11T18:18:59.293Z,49.30
2019-05-11T18:22:04.108Z,49.40
2019-05-11T18:25:09.741Z,49.90
2019-05-11T18:28:14.698Z,49.50
2019-05-11T18:31:19.988Z,49.50
2019-05-11T18:34:25.057Z,49.70
2019-05-11T18:37:30.197Z,49.90
2019-05-11T18:40:35.368Z,50.00
2019-05-11T18:43:40.330Z,50.30
2019-05-11T18:46:47.856Z,50.60
2019-05-11T18:49:52.431Z,50.80
2019-05-11T18:52:58.165Z,51.20
2019-05-11T18:56:03.225Z,53.30
2019-05-11T18:59:08.993Z,56.70
2019-05-11T19:02:14.097Z,58.60
2019-05-11T19:05:19.269Z,60.50
2019-05-11T19:08:24.545Z,63.40
2019-05-11T19:11:29.558Z,66.70
2019-05-11T19:14:34.527Z,67.30
2019-05-11T19:17:40.890Z,68.40
2019-05-11T19:20:49.120Z,70.60
2019-05-11T19:23:54.453Z,71.20
2019-05-11T19:27:00.902Z,71.70
2019-05-11T19:30:07.973Z,71.40
2019-05-11T19:33:14.049Z,73.70
2019-05-11T19:36:19.255Z,74.20
2019-05-11T19:39:25.240Z,74.40
2019-05-11T19:42:30.918Z,74.00
2019-05-11T19:45:38.188Z,73.00
2019-05-11T19:48:42.867Z,72.30
2019-05-11T19:51:49.427Z,72.60
2019-05-11T19:54:54.715Z,72.90
2019-05-11T19:57:59.945Z,73.00
2019-05-11T20:01:05.085Z,71.70
2019-05-11T20:04:10.202Z,71.40
2019-05-11T20:07:18.148Z,72.00
2019-05-11T20:10:22.556Z,73.30
2019-05-11T20:13:31.125Z,72.40
2019-05-11T20:16:36.233Z,72.30
2019-05-11T20:19:44.217Z,70.50
2019-05-11T20:22:50.297Z,72.00
2019-05-11T20:25:58.070Z,71.20
2019-05-11T20:29:02.868Z,71.50
2019-05-11T20:32:08.173Z,71.30
2019-05-11T20:35:15.058Z,71.50
2019-05-11T20:38:20.417Z,70.70
2019-05-11T20:41:29.286Z,71.20
2019-05-11T20:44:34.893Z,69.20
2019-05-11T20:47:39.876Z,68.70
2019-05-11T20:50:44.989Z,69.00
2019-05-11T20:53:50.121Z,69.20
2019-05-11T20:56:55.107Z,68.80
2019-05-11T21:00:00.061Z,68.40
2019-05-11T21:03:05.116Z,68.50
2019-05-11T21:06:10.409Z,68.20
2019-05-11T21:09:18.253Z,68.00
2019-05-11T21:12:22.456Z,68.60
2019-05-11T21:15:28.120Z,67.60
2019-05-11T21:18:34.615Z,68.10
2019-05-11T21:21:50.209Z,67.50
2019-05-11T21:24:49.370Z,67.20
2019-05-11T21:27:53.321Z,66.10
2019-05-11T21:30:58.582Z,66.00
2019-05-11T21:34:03.705Z,65.40
2019-05-11T21:37:29.178Z,64.60
2019-05-11T21:40:34.337Z,65.00
2019-05-11T21:43:39.262Z,65.40
2019-05-11T21:46:44.177Z,65.40
2019-05-11T21:49:49.241Z,65.60
2019-05-11T21:52:54.410Z,64.90
2019-05-11T21:55:59.550Z,63.90
2019-05-11T21:59:04.290Z,64.30
2019-05-11T22:02:11.122Z,64.10
2019-05-11T22:05:20.205Z,64.80
2019-05-11T22:08:23.016Z,64.50
2019-05-11T22:11:28.538Z,63.60
2019-05-11T22:14:33.568Z,62.90
2019-05-11T22:17:39.304Z,63.50
2019-05-11T22:20:44.642Z,63.70
2019-05-11T22:23:50.675Z,63.10
2019-05-11T22:26:57.479Z,62.80
2019-05-11T22:30:02.834Z,63.90
2019-05-11T22:33:08.775Z,64.20
2019-05-11T22:36:14.147Z,65.20
2019-05-11T22:39:20.899Z,66.40
2019-05-11T22:42:28.066Z,66.70
2019-05-11T22:45:32.776Z,67.40
2019-05-11T22:48:38.183Z,68.20
2019-05-11T22:51:43.204Z,67.60
2019-05-11T22:54:48.542Z,68.90
2019-05-11T22:57:53.445Z,69.70
2019-05-11T23:00:59.779Z,70.70
2019-05-11T23:04:04.835Z,71.50
2019-05-11T23:07:09.674Z,69.70
2019-05-11T23:10:14.877Z,69.40
2019-05-11T23:13:19.911Z,69.20
2019-05-11T23:16:25.066Z,69.80
2019-05-11T23:19:30.059Z,70.70
2019-05-11T23:22:50.722Z,71.90
2019-05-11T23:25:43.486Z,71.20
2019-05-11T23:28:48.796Z,70.40
2019-05-11T23:31:53.822Z,70.80
2019-05-11T23:34:59.191Z,72.40
2019-05-11T23:38:04.078Z,72.60
2019-05-11T23:41:23.435Z,72.80
2019-05-11T23:44:17.806Z,72.20
2019-05-11T23:47:21.933Z,72.60
2019-05-11T23:50:28.143Z,72.00
2019-05-11T23:53:33.797Z,71.50
2019-05-11T23:56:38.819Z,71.70
2019-05-11T23:59:43.761Z,71.80
